This is the latest recevied weather packets stored in our database for station/object OK3MS-5. If no packets are shown the sender has not sent any weather packets the latest 10 day(s).
| Time | Temp. | Humidity | Pressure | Rain* | Wind** | Luminosity | Snow |
|---|---|---|---|---|---|---|---|
| 1788024015 | 21.67° C | 56% | 1013.8 hPa | 0 mm | - | 13 W/m² | - |
| 1788023705 | 22.22° C | 56% | 1013.9 hPa | 0 mm | - | 16 W/m² | - |
| 1788023406 | 22.78° C | 53% | 1013.7 hPa | 0 mm | - | 20 W/m² | - |
| 1788023106 | 24.44° C | 49% | 1013.3 hPa | 0 mm | - | 24 W/m² | - |
| 1788022803 | 23.89° C | 49% | 1013.4 hPa | 0 mm | - | 31 W/m² | - |
| 1788022503 | 23.33° C | 51% | 1013.5 hPa | 0 mm | - | 34 W/m² | - |
| 1788022205 | 23.89° C | 51% | 1013.4 hPa | 0 mm | - | 31 W/m² | - |
| 1788021905 | 24.44° C | 49% | 1013.3 hPa | 0 mm | - | 44 W/m² | - |
| 1788021604 | 23.89° C | 50% | 1013.4 hPa | 0 mm | - | 51 W/m² | - |
| 1788021306 | 22.78° C | 50% | 1013.6 hPa | 0 mm | - | 64 W/m² | - |
| 1788021008 | 22.22° C | 53% | 1013.8 hPa | 0 mm | - | 79 W/m² | - |
| 1788020702 | 22.78° C | 52% | 1013.7 hPa | 0 mm | - | 44 W/m² | - |
| 1788020403 | 23.33° C | 51% | 1013.5 hPa | 0 mm | - | 46 W/m² | - |
| 1788020104 | 25° C | 48% | 1013.2 hPa | 0 mm | - | 48 W/m² | - |
| 1788019804 | 25° C | 47% | 1013.2 hPa | 0 mm | - | 122 W/m² | - |
| 1788019505 | 23.89° C | 47% | 1013.4 hPa | 0 mm | - | 148 W/m² | - |
| 1788019203 | 22.78° C | 50% | 1013.7 hPa | 0 mm | - | 167 W/m² | - |
| 1788018910 | 22.22° C | 54% | 1013.8 hPa | 0 mm | - | 180 W/m² | - |
| 1788018604 | 22.22° C | 53% | 1013.8 hPa | 0 mm | - | 59 W/m² | - |
| 1788018304 | 22.78° C | 53% | 1013.8 hPa | 0 mm | - | 47 W/m² | - |
| 1788018006 | 24.44° C | 49% | 1013.5 hPa | 0 mm | - | 48 W/m² | - |
| 1788017705 | 25.56° C | 48% | 1013.2 hPa | 0 mm | - | 55 W/m² | - |
| 1788017405 | 24.44° C | 47% | 1013.4 hPa | 0 mm | - | 239 W/m² | - |
| 1788017104 | 23.89° C | 47% | 1013.5 hPa | 0 mm | - | 242 W/m² | - |
| 1788016805 | 23.89° C | 49% | 1013.5 hPa | 0 mm | - | 273 W/m² | - |
* Rain latest hour (hover to see other rain measurements)
** Current wind speed in m/s (hover to see current wind gust speed)